createdAt,value
2019-03-21T00:01:44.754Z,51.84
2019-03-21T00:04:15.193Z,51.77
2019-03-21T00:06:45.078Z,52.20
2019-03-21T00:09:17.357Z,52.13
2019-03-21T00:12:06.947Z,52.33
2019-03-21T00:14:43.092Z,52.36
2019-03-21T00:17:32.820Z,52.62
2019-03-21T00:20:02.587Z,52.37
2019-03-21T00:22:32.483Z,52.41
2019-03-21T00:25:02.254Z,52.53
2019-03-21T00:27:32.035Z,52.58
2019-03-21T00:30:01.809Z,52.40
2019-03-21T00:32:31.649Z,52.59
2019-03-21T00:35:01.446Z,52.74
2019-03-21T00:37:31.187Z,52.46
2019-03-21T00:40:01.478Z,52.68
2019-03-21T00:42:31.261Z,52.43
2019-03-21T00:45:01.262Z,52.75
2019-03-21T00:47:31.019Z,52.68
2019-03-21T00:50:00.791Z,52.81
2019-03-21T00:52:30.585Z,52.86
2019-03-21T00:55:00.351Z,53.26
2019-03-21T00:57:30.143Z,53.26
2019-03-21T00:59:59.973Z,53.54
2019-03-21T01:02:29.735Z,53.50
2019-03-21T01:04:59.523Z,53.80
2019-03-21T01:07:29.266Z,53.72
2019-03-21T01:09:59.502Z,53.86
2019-03-21T01:12:29.261Z,53.89
2019-03-21T01:14:59.037Z,54.24
2019-03-21T01:17:28.817Z,54.41
2019-03-21T01:19:58.610Z,54.53
2019-03-21T01:22:28.401Z,54.49
2019-03-21T01:24:58.177Z,54.76
2019-03-21T01:27:27.972Z,54.90
2019-03-21T01:29:57.724Z,55.01
2019-03-21T01:32:27.540Z,55.05
2019-03-21T01:34:57.277Z,55.34
2019-03-21T01:37:27.047Z,55.46
2019-03-21T01:39:56.810Z,55.55
2019-03-21T01:42:26.602Z,55.84
2019-03-21T01:44:56.445Z,55.72
2019-03-21T01:47:26.229Z,55.88
2019-03-21T01:49:55.998Z,55.91
2019-03-21T01:52:25.752Z,56.22
2019-03-21T01:54:55.561Z,56.15
2019-03-21T01:57:25.295Z,56.01
2019-03-21T01:59:55.073Z,56.34
2019-03-21T02:02:24.856Z,56.47
2019-03-21T02:04:54.664Z,56.59
2019-03-21T02:07:24.428Z,56.78
2019-03-21T02:09:54.199Z,56.96
2019-03-21T02:12:23.964Z,57.04
2019-03-21T02:14:53.703Z,57.18
2019-03-21T02:17:23.498Z,57.35
2019-03-21T02:19:53.235Z,57.39
2019-03-21T02:22:23.043Z,57.41
2019-03-21T02:24:52.843Z,57.51
2019-03-21T02:27:22.678Z,57.73
2019-03-21T02:29:52.429Z,57.95
2019-03-21T02:32:22.216Z,58.30
2019-03-21T02:34:51.989Z,58.17
2019-03-21T02:37:21.733Z,58.26
2019-03-21T02:39:59.334Z,58.57
2019-03-21T02:42:22.980Z,58.50
2019-03-21T02:45:07.225Z,58.59
2019-03-21T02:47:24.238Z,58.58
2019-03-21T02:49:54.112Z,58.94
2019-03-21T02:52:23.873Z,58.93
2019-03-21T02:54:53.676Z,59.04
2019-03-21T02:57:23.417Z,59.13
2019-03-21T02:59:53.180Z,59.29
2019-03-21T03:02:22.964Z,59.47
2019-03-21T03:04:52.837Z,59.48
2019-03-21T03:07:22.621Z,59.40
2019-03-21T03:09:52.399Z,59.75
2019-03-21T03:12:22.164Z,59.82
2019-03-21T03:14:51.905Z,60.11
2019-03-21T03:17:21.725Z,60.28
2019-03-21T03:19:51.468Z,60.33
2019-03-21T03:22:21.278Z,60.51
2019-03-21T03:24:51.357Z,60.68
2019-03-21T03:27:21.149Z,60.76
2019-03-21T03:29:50.929Z,60.91
2019-03-21T03:32:20.808Z,61.08
2019-03-21T03:34:50.837Z,61.06
2019-03-21T03:37:20.568Z,61.06
2019-03-21T03:39:50.378Z,61.25
2019-03-21T03:42:20.155Z,61.35
2019-03-21T03:44:49.962Z,61.46
2019-03-21T03:47:19.728Z,61.45
2019-03-21T03:49:49.503Z,61.84
2019-03-21T03:52:19.283Z,62.00
2019-03-21T03:54:49.038Z,62.15
2019-03-21T03:57:19.486Z,62.22
2019-03-21T03:59:49.222Z,62.29
2019-03-21T04:02:19.018Z,62.39
2019-03-21T04:04:48.754Z,62.52
2019-03-21T04:07:18.561Z,62.39
2019-03-21T04:09:48.299Z,62.71
2019-03-21T04:12:18.082Z,62.61
2019-03-21T04:14:47.860Z,62.76
2019-03-21T04:17:17.597Z,62.92
2019-03-21T04:19:47.415Z,62.99
2019-03-21T04:22:17.333Z,62.85
2019-03-21T04:24:47.131Z,62.92
2019-03-21T04:27:16.925Z,63.06
2019-03-21T04:29:46.713Z,63.18
2019-03-21T04:32:16.498Z,63.09
2019-03-21T04:34:46.308Z,63.22
2019-03-21T04:37:16.087Z,63.29
2019-03-21T04:39:45.900Z,63.16
2019-03-21T04:42:15.663Z,63.31
2019-03-21T04:44:45.404Z,63.39
2019-03-21T04:47:15.208Z,63.32
2019-03-21T04:49:45.033Z,63.21
2019-03-21T04:52:14.855Z,63.31
2019-03-21T04:54:44.948Z,63.39
2019-03-21T04:57:14.761Z,63.34
2019-03-21T04:59:44.541Z,63.34
2019-03-21T05:02:14.337Z,63.30
2019-03-21T05:04:44.100Z,63.50
2019-03-21T05:07:13.901Z,63.28
2019-03-21T05:09:44.275Z,63.29
2019-03-21T05:12:17.064Z,63.40
2019-03-21T05:14:46.834Z,63.25
2019-03-21T05:17:16.653Z,63.37
2019-03-21T05:19:46.430Z,63.11
2019-03-21T05:22:16.203Z,63.19
2019-03-21T05:24:45.988Z,62.98
2019-03-21T05:27:15.725Z,62.85
2019-03-21T05:29:48.335Z,62.99
2019-03-21T05:32:18.096Z,63.03
2019-03-21T05:34:47.883Z,63.14
2019-03-21T05:37:17.661Z,63.01
2019-03-21T05:39:47.452Z,63.02
2019-03-21T05:42:17.321Z,63.00
2019-03-21T05:44:47.054Z,62.83
2019-03-21T05:47:16.851Z,62.89
2019-03-21T05:49:46.595Z,62.66
2019-03-21T05:52:16.377Z,62.69
2019-03-21T05:54:46.146Z,62.67
2019-03-21T05:57:15.954Z,62.57
2019-03-21T05:59:45.729Z,62.55
2019-03-21T06:02:15.508Z,62.70
2019-03-21T06:04:45.294Z,62.74
2019-03-21T06:07:20.950Z,62.72
2019-03-21T06:09:50.716Z,62.60
2019-03-21T06:12:20.501Z,62.84
2019-03-21T06:15:01.983Z,62.76
2019-03-21T06:17:32.075Z,62.78
2019-03-21T06:20:35.046Z,62.77
2019-03-21T06:23:23.085Z,62.78
2019-03-21T06:26:13.990Z,62.78
2019-03-21T06:28:43.788Z,62.72
2019-03-21T06:31:13.571Z,62.44
2019-03-21T06:33:43.341Z,62.51
2019-03-21T06:36:13.128Z,61.96
2019-03-21T06:38:42.866Z,62.32
2019-03-21T06:41:12.663Z,61.67
2019-03-21T06:43:42.401Z,61.94
2019-03-21T06:46:12.204Z,61.79
2019-03-21T06:48:41.948Z,61.60
2019-03-21T06:51:11.732Z,61.68
2019-03-21T06:53:41.512Z,61.40
2019-03-21T06:56:11.288Z,61.54
2019-03-21T06:58:41.068Z,61.36
2019-03-21T07:01:10.816Z,61.32
2019-03-21T07:03:40.792Z,61.31
2019-03-21T07:06:10.541Z,61.15
2019-03-21T07:08:40.330Z,61.11
2019-03-21T07:11:10.066Z,60.89
2019-03-21T07:13:39.855Z,60.57
2019-03-21T07:16:09.684Z,60.47
2019-03-21T07:18:39.488Z,60.21
2019-03-21T07:21:09.268Z,60.21
2019-03-21T07:23:39.075Z,61.06
2019-03-21T07:26:08.844Z,61.16
2019-03-21T07:28:38.798Z,62.64
2019-03-21T07:31:11.362Z,62.84
2019-03-21T07:33:42.391Z,63.16
2019-03-21T07:36:12.842Z,63.67
2019-03-21T07:38:42.922Z,63.55
2019-03-21T07:41:13.275Z,63.48
2019-03-21T07:43:43.506Z,63.12
2019-03-21T07:46:14.036Z,63.16
2019-03-21T07:48:45.894Z,63.37
2019-03-21T07:51:16.463Z,63.17
2019-03-21T07:53:46.449Z,63.36
2019-03-21T07:56:16.237Z,62.95
2019-03-21T07:58:46.075Z,63.18
2019-03-21T08:01:19.231Z,62.77
2019-03-21T08:03:49.895Z,61.89
2019-03-21T08:06:20.601Z,62.16
2019-03-21T08:08:51.511Z,62.87
2019-03-21T08:11:21.511Z,61.73
2019-03-21T08:13:51.329Z,61.56
2019-03-21T08:16:21.971Z,61.27
2019-03-21T08:18:52.837Z,61.16
2019-03-21T08:21:23.252Z,60.74
2019-03-21T08:23:54.006Z,60.95
2019-03-21T08:26:24.395Z,60.80
2019-03-21T08:28:54.201Z,60.66
2019-03-21T08:31:23.977Z,61.26
2019-03-21T08:33:53.785Z,60.89
2019-03-21T08:36:23.571Z,61.85
2019-03-21T08:38:53.377Z,61.22
2019-03-21T08:41:23.159Z,60.75
2019-03-21T08:43:52.934Z,60.31
2019-03-21T08:46:22.723Z,61.13
2019-03-21T08:48:52.482Z,60.99
2019-03-21T08:51:22.309Z,61.05
2019-03-21T08:53:52.093Z,61.24
2019-03-21T08:56:21.863Z,60.93
2019-03-21T08:58:51.752Z,60.08
2019-03-21T09:01:21.499Z,59.06
2019-03-21T09:03:51.303Z,60.13
2019-03-21T09:06:21.054Z,59.97
2019-03-21T09:08:51.162Z,60.32
2019-03-21T09:11:20.949Z,60.63
2019-03-21T09:13:50.855Z,60.27
2019-03-21T09:16:20.624Z,60.33
2019-03-21T09:18:50.598Z,59.58
2019-03-21T09:21:20.398Z,59.02
2019-03-21T09:23:50.235Z,57.62
2019-03-21T09:26:20.085Z,57.10
2019-03-21T09:28:49.989Z,56.42
2019-03-21T09:31:19.803Z,56.95
2019-03-21T09:33:49.584Z,57.15
2019-03-21T09:36:19.372Z,58.88
2019-03-21T09:38:49.151Z,58.58
2019-03-21T09:41:18.887Z,57.27
2019-03-21T09:43:48.704Z,56.54
2019-03-21T09:46:18.448Z,55.15
2019-03-21T09:48:48.275Z,55.22
2019-03-21T09:51:18.012Z,54.89
2019-03-21T09:53:47.797Z,55.54
2019-03-21T09:56:17.557Z,54.57
2019-03-21T09:58:47.335Z,54.91
2019-03-21T10:01:17.109Z,55.20
2019-03-21T10:03:47.618Z,54.23
2019-03-21T10:06:17.406Z,53.87
2019-03-21T10:08:47.221Z,53.34
2019-03-21T10:11:16.992Z,53.22
2019-03-21T10:13:46.766Z,53.41
2019-03-21T10:16:16.536Z,54.13
2019-03-21T10:18:46.270Z,54.89
2019-03-21T10:21:16.160Z,55.30
2019-03-21T10:23:46.005Z,56.04
2019-03-21T10:26:15.795Z,56.00
2019-03-21T10:28:45.586Z,54.52
2019-03-21T10:31:15.390Z,53.98
2019-03-21T10:33:45.182Z,53.27
2019-03-21T10:36:16.081Z,53.55
2019-03-21T10:38:46.220Z,53.40
2019-03-21T10:41:16.019Z,52.99
2019-03-21T10:43:45.887Z,52.49
2019-03-21T10:46:15.658Z,52.56
2019-03-21T10:48:45.441Z,52.53
2019-03-21T10:51:15.199Z,51.85
2019-03-21T10:53:45.020Z,52.20
2019-03-21T10:56:14.753Z,52.64
2019-03-21T10:58:44.544Z,52.77
2019-03-21T11:01:14.315Z,53.07
2019-03-21T11:03:44.069Z,52.40
2019-03-21T11:06:13.870Z,51.93
2019-03-21T11:08:43.618Z,51.74
2019-03-21T11:11:13.550Z,52.72
2019-03-21T11:13:43.361Z,51.76
2019-03-21T11:16:13.098Z,50.46
2019-03-21T11:18:42.897Z,51.17
2019-03-21T11:21:12.632Z,50.54
2019-03-21T11:23:42.414Z,51.03
2019-03-21T11:26:12.213Z,51.37
2019-03-21T11:28:42.006Z,52.00
2019-03-21T11:31:11.866Z,52.00
2019-03-21T11:33:41.666Z,51.46
2019-03-21T11:36:11.624Z,51.82
2019-03-21T11:38:41.404Z,51.44
2019-03-21T11:41:11.195Z,51.84
2019-03-21T11:43:41.043Z,51.06
2019-03-21T11:46:10.848Z,50.60
2019-03-21T11:48:40.619Z,50.71
2019-03-21T11:51:10.495Z,50.97
2019-03-21T11:53:40.355Z,51.94
2019-03-21T11:56:12.872Z,51.90
2019-03-21T11:58:41.732Z,51.71
2019-03-21T12:01:11.630Z,51.02
2019-03-21T12:03:41.399Z,52.05
2019-03-21T12:06:11.628Z,51.83
2019-03-21T12:08:41.403Z,51.78
2019-03-21T12:11:11.182Z,51.08
2019-03-21T12:13:41.170Z,51.80
2019-03-21T12:16:10.921Z,51.31
2019-03-21T12:18:42.151Z,51.33
2019-03-21T12:21:12.010Z,51.39
2019-03-21T12:23:41.800Z,52.21
2019-03-21T12:26:11.599Z,53.03
2019-03-21T12:28:41.402Z,53.25
2019-03-21T12:31:11.126Z,52.51
2019-03-21T12:33:40.898Z,52.26
2019-03-21T12:36:10.745Z,53.19
2019-03-21T12:38:40.647Z,53.37
2019-03-21T12:41:10.427Z,53.19
2019-03-21T12:43:40.331Z,53.68
2019-03-21T12:46:10.100Z,54.51
2019-03-21T12:48:39.858Z,54.89
2019-03-21T12:51:09.884Z,55.07
2019-03-21T12:53:39.702Z,55.06
2019-03-21T12:56:09.572Z,54.84
2019-03-21T12:58:39.322Z,55.06
2019-03-21T13:01:09.111Z,55.88
2019-03-21T13:03:38.892Z,56.30
2019-03-21T13:06:08.749Z,56.59
2019-03-21T13:08:38.729Z,56.15
2019-03-21T13:11:08.514Z,55.81
2019-03-21T13:13:38.331Z,56.17
2019-03-21T13:16:08.122Z,54.95
2019-03-21T13:18:37.920Z,55.05
2019-03-21T13:21:07.707Z,55.01
2019-03-21T13:23:37.490Z,55.59
2019-03-21T13:26:07.258Z,54.91
2019-03-21T13:28:37.007Z,54.84
2019-03-21T13:31:06.820Z,54.60
2019-03-21T13:33:36.580Z,54.83
2019-03-21T13:36:06.351Z,54.60
2019-03-21T13:38:36.127Z,54.67
2019-03-21T13:41:05.908Z,55.56
2019-03-21T13:43:35.713Z,55.40
2019-03-21T13:46:05.469Z,54.85
2019-03-21T13:48:35.281Z,56.02
2019-03-21T13:51:05.012Z,56.07
2019-03-21T13:53:34.830Z,55.87
2019-03-21T13:56:04.587Z,54.83
2019-03-21T13:58:34.364Z,55.40
2019-03-21T14:01:04.157Z,54.99
2019-03-21T14:03:33.972Z,55.51
2019-03-21T14:06:04.864Z,55.65
2019-03-21T14:08:34.692Z,55.46
2019-03-21T14:11:04.510Z,55.73
2019-03-21T14:13:34.322Z,55.90
2019-03-21T14:16:04.110Z,55.87
2019-03-21T14:18:33.877Z,56.22
2019-03-21T14:21:03.671Z,55.64
2019-03-21T14:23:42.672Z,56.56
2019-03-21T14:26:04.926Z,56.28
2019-03-21T14:28:34.713Z,56.09
2019-03-21T14:31:04.529Z,56.03
2019-03-21T14:33:34.420Z,56.12
2019-03-21T14:36:04.220Z,56.21
2019-03-21T14:38:34.005Z,56.53
2019-03-21T14:41:03.767Z,56.45
2019-03-21T14:43:33.557Z,56.77
2019-03-21T14:46:03.295Z,56.67
2019-03-21T14:48:33.113Z,57.06
2019-03-21T14:51:02.862Z,57.09
2019-03-21T14:53:32.662Z,57.33
2019-03-21T14:56:02.517Z,57.11
2019-03-21T14:58:32.340Z,57.81
2019-03-21T15:01:02.115Z,57.81
2019-03-21T15:03:32.014Z,58.03
2019-03-21T15:06:01.898Z,58.21
2019-03-21T15:08:31.658Z,58.34
2019-03-21T15:11:01.460Z,58.51
2019-03-21T15:13:31.259Z,58.43
2019-03-21T15:16:01.224Z,58.27
2019-03-21T15:18:31.019Z,58.66
2019-03-21T15:21:01.127Z,58.94
2019-03-21T15:23:40.101Z,59.08
2019-03-21T15:26:02.407Z,58.99
2019-03-21T15:28:32.182Z,59.05
2019-03-21T15:31:01.958Z,59.30
2019-03-21T15:33:31.750Z,59.86
2019-03-21T15:36:01.507Z,59.76
2019-03-21T15:38:31.302Z,59.90
2019-03-21T15:41:01.043Z,60.08
2019-03-21T15:43:30.824Z,60.20
2019-03-21T15:46:00.592Z,60.46
2019-03-21T15:48:30.417Z,60.55
2019-03-21T15:51:04.690Z,60.34
2019-03-21T15:53:31.681Z,60.30
2019-03-21T15:56:01.458Z,60.48
2019-03-21T15:58:31.268Z,60.32
2019-03-21T16:01:01.047Z,60.56
2019-03-21T16:03:30.838Z,61.07
2019-03-21T16:06:00.628Z,60.70
2019-03-21T16:08:30.404Z,60.78
2019-03-21T16:11:00.378Z,60.58
2019-03-21T16:13:30.132Z,60.45
2019-03-21T16:15:59.947Z,60.67
2019-03-21T16:18:29.700Z,60.84
2019-03-21T16:20:59.475Z,60.36
2019-03-21T16:23:29.260Z,61.02
2019-03-21T16:25:59.175Z,61.08
2019-03-21T16:28:28.975Z,61.28
2019-03-21T16:30:58.747Z,61.12
2019-03-21T16:33:28.539Z,61.33
2019-03-21T16:35:58.285Z,61.13
2019-03-21T16:38:28.098Z,61.37
2019-03-21T16:40:57.861Z,61.29
2019-03-21T16:43:27.648Z,61.28
2019-03-21T16:45:57.435Z,61.58
2019-03-21T16:48:27.248Z,61.34
2019-03-21T16:50:57.051Z,61.54
2019-03-21T16:53:26.866Z,61.41
2019-03-21T16:55:56.650Z,61.49
2019-03-21T16:58:26.451Z,61.53
2019-03-21T17:00:56.235Z,61.60
2019-03-21T17:03:25.981Z,61.53
2019-03-21T17:05:55.829Z,61.87
2019-03-21T17:08:25.630Z,61.75
2019-03-21T17:10:55.652Z,62.17
2019-03-21T17:13:25.404Z,62.13
2019-03-21T17:15:56.798Z,62.44
2019-03-21T17:18:26.539Z,62.40
2019-03-21T17:20:56.378Z,62.33
2019-03-21T17:23:26.103Z,62.66
2019-03-21T17:25:55.897Z,62.76
2019-03-21T17:28:25.682Z,62.93
2019-03-21T17:30:57.041Z,62.88
2019-03-21T17:33:28.390Z,63.13
2019-03-21T17:35:58.208Z,63.24
2019-03-21T17:38:28.083Z,63.43
2019-03-21T17:40:57.871Z,63.27
2019-03-21T17:43:27.757Z,63.35
2019-03-21T17:45:58.284Z,63.39
2019-03-21T17:48:28.607Z,63.52
2019-03-21T17:50:58.353Z,63.33
2019-03-21T17:53:28.164Z,63.75
2019-03-21T17:55:58.202Z,63.65
2019-03-21T17:58:28.802Z,64.06
2019-03-21T18:00:58.805Z,63.82
2019-03-21T18:03:28.615Z,63.98
2019-03-21T18:05:58.373Z,63.79
2019-03-21T18:08:28.179Z,63.68
2019-03-21T18:10:57.947Z,64.00
2019-03-21T18:13:27.788Z,63.49
2019-03-21T18:15:59.218Z,63.70
2019-03-21T18:18:30.597Z,63.85
2019-03-21T18:21:01.839Z,64.07
2019-03-21T18:23:40.095Z,64.19
2019-03-21T18:26:07.880Z,64.23
2019-03-21T18:50:58.009Z,64.53
2019-03-21T18:56:55.623Z,64.83
2019-03-21T18:59:27.395Z,64.65
2019-03-21T19:02:00.145Z,64.57
2019-03-21T19:04:32.752Z,64.73
2019-03-21T19:11:05.495Z,64.78
2019-03-21T19:13:59.468Z,65.06
2019-03-21T19:16:34.552Z,65.57
2019-03-21T19:19:06.259Z,65.62
2019-03-21T19:21:43.045Z,65.96
2019-03-21T19:24:20.317Z,65.94
2019-03-21T19:26:51.160Z,66.06
2019-03-21T19:29:21.530Z,66.19
2019-03-21T19:31:57.855Z,66.24
2019-03-21T19:34:36.971Z,65.98
2019-03-21T19:37:15.103Z,66.37
2019-03-21T19:39:49.764Z,66.13
2019-03-21T19:42:28.537Z,66.18
2019-03-21T19:45:02.348Z,65.84
2019-03-21T19:47:35.256Z,65.85
2019-03-21T19:50:10.816Z,65.75
2019-03-21T19:52:42.378Z,66.04
2019-03-21T19:55:30.180Z,66.34
2019-03-21T19:57:59.587Z,66.47
2019-03-21T20:00:46.270Z,66.49
2019-03-21T20:03:21.386Z,66.50
2019-03-21T20:06:00.543Z,66.50
2019-03-21T20:08:49.173Z,66.50
2019-03-21T20:11:35.028Z,66.63
2019-03-21T20:14:24.524Z,66.87
2019-03-21T20:17:01.768Z,66.77
2019-03-21T20:19:36.268Z,66.97
2019-03-21T20:22:13.633Z,67.00
2019-03-21T20:24:44.396Z,66.76
2019-03-21T20:27:15.107Z,67.07
2019-03-21T20:29:45.973Z,67.22
2019-03-21T20:32:20.693Z,67.29
2019-03-21T20:34:49.417Z,67.37
2019-03-21T20:37:20.055Z,67.32
2019-03-21T20:39:51.505Z,67.27
2019-03-21T20:42:21.826Z,67.57
2019-03-21T20:44:53.844Z,67.54
2019-03-21T20:47:24.759Z,67.86
2019-03-21T20:50:14.223Z,67.75
2019-03-21T20:55:56.251Z,67.45
2019-03-21T20:58:40.804Z,67.45
2019-03-21T21:01:14.501Z,67.36
2019-03-21T21:04:09.331Z,67.42
2019-03-21T21:06:51.537Z,67.29
2019-03-21T21:28:01.518Z,67.45
2019-03-21T21:30:34.110Z,67.62
2019-03-21T21:33:06.248Z,67.38
2019-03-21T21:35:38.910Z,67.63
2019-03-21T21:38:10.126Z,67.77
2019-03-21T21:40:40.679Z,67.76
2019-03-21T21:43:10.489Z,67.67
2019-03-21T21:45:40.959Z,67.65
2019-03-21T21:48:12.068Z,67.66
2019-03-21T21:50:41.843Z,67.75
2019-03-21T21:53:11.653Z,67.65
2019-03-21T21:55:43.047Z,67.86
2019-03-21T21:58:12.860Z,67.83
2019-03-21T22:00:42.640Z,67.92
2019-03-21T22:03:12.411Z,67.91
2019-03-21T22:05:42.200Z,68.05
2019-03-21T22:08:11.942Z,68.18
2019-03-21T22:10:41.742Z,68.31
2019-03-21T22:13:11.514Z,68.22
2019-03-21T22:15:41.478Z,68.21
2019-03-21T22:18:11.268Z,68.41
2019-03-21T22:20:41.073Z,68.37
2019-03-21T22:23:10.864Z,68.37
2019-03-21T22:25:40.659Z,68.30
2019-03-21T22:28:10.437Z,68.35
2019-03-21T22:30:40.247Z,68.42
2019-03-21T22:33:10.018Z,68.49
2019-03-21T22:35:39.793Z,68.58
2019-03-21T22:38:09.563Z,68.84
2019-03-21T22:40:39.310Z,68.77
2019-03-21T22:43:09.111Z,68.98
2019-03-21T22:45:38.888Z,68.98
2019-03-21T22:48:08.675Z,69.27
2019-03-21T22:50:38.447Z,69.06
2019-03-21T22:53:08.191Z,69.23
2019-03-21T22:55:37.994Z,69.25
2019-03-21T22:58:07.734Z,69.37
2019-03-21T23:00:42.111Z,69.35
2019-03-21T23:03:11.950Z,69.30
2019-03-21T23:05:41.930Z,69.31
2019-03-21T23:08:11.658Z,69.39
2019-03-21T23:10:41.533Z,69.47
2019-03-21T23:13:11.282Z,69.63
2019-03-21T23:15:41.061Z,69.57
2019-03-21T23:18:10.846Z,69.53
2019-03-21T23:20:40.645Z,69.77
2019-03-21T23:23:10.438Z,69.76
2019-03-21T23:25:40.222Z,69.69
2019-03-21T23:28:10.007Z,69.55
2019-03-21T23:30:39.744Z,69.74
2019-03-21T23:33:09.561Z,69.79
2019-03-21T23:35:39.331Z,69.88
2019-03-21T23:38:09.104Z,69.92
2019-03-21T23:40:38.874Z,69.98
2019-03-21T23:43:08.627Z,69.87
2019-03-21T23:45:38.429Z,69.86
2019-03-21T23:48:08.187Z,70.00
2019-03-21T23:50:38.022Z,70.31
2019-03-21T23:53:07.798Z,70.23
2019-03-21T23:55:37.602Z,70.31
2019-03-21T23:58:07.422Z,70.59
